• Join FlightAware (Why Join?)
  • Login
  • US Flag 
12:03AM EST


 

Airport Tracker/Info


-or-


 

Live Flight TrackerFlight Track Log ✈ HAL121 ✈ 01-Aug-2013 ✈ PHTO / ITO - PHNL

Flight Track Log - Related Links

Times and Time Zones

All times are in EDT time to prevent confusion due to time zone crossing. See the HAL121 flight status page for this flight to view local times or setup timezone preferences in your user account.

Time Position Orientation Groundspeed Altitude Reporting Facility
EDT Latitude Longitude Course Direction KTS MPH feet Rate Location/Type
02:55PM 19.7167 -155.0167 285° West 180 207 1,000  Level Honolulu Center
02:56PM 19.7667 -154.9833 32° Northeast 210 242 2,500 1,560 Climbing Honolulu Center
02:57PM 19.8167 -155.0167 328° Northwest 270 311 4,200 2,040 Climbing Honolulu Center
02:58PM 19.9151 -155.1864 325° Northwest  Level FlightAware Approximate
02:58PM 19.8667 -155.0833 309° West 280 322 6,700  Level Honolulu Center
02:59PM 19.9851 -155.2263 325° Northwest  Level FlightAware Approximate
02:59PM 19.9333 -155.1500 317° Northwest 300 345 8,800  Level Honolulu Center
03:00PM 20.0278 -155.2944 285° West  Level FlightAware Approximate
03:00PM 19.9833 -155.2167 309° West 300 345 10,500  Level Honolulu Center
03:01PM 20.0333 -155.3000 303° West 340 391 11,600 1,200 Climbing Honolulu Center
03:02PM 20.0667 -155.4000 290° West 380 437 13,000 1,560 Climbing Honolulu Center
03:03PM 20.1167 -155.5000 298° West 370 426 14,800 1,620 Climbing Honolulu Center
03:04PM 20.1667 -155.6000 298° West 390 449 16,300 1,380 Climbing Honolulu Center
03:05PM 20.2000 -155.7167 287° West 400 460 17,700 1,440 Climbing Honolulu Center
03:06PM 20.2500 -155.8167 298° West 400 460 19,300 1,500 Climbing Honolulu Center
03:07PM 20.3000 -155.9333 295° West 410 472 20,800 1,320 Climbing Honolulu Center
03:08PM 20.3333 -156.0333 290° West 400 460 22,000 540 Climbing Honolulu Center
03:09PM 20.3833 -156.1500 295° West 400 460 22,000  Level Honolulu Center
03:10PM 20.4333 -156.2667 295° West 400 460 22,000  Level Honolulu Center
03:11PM 20.4667 -156.3833 287° West 400 460 22,000  Level Honolulu Center
03:12PM 20.5167 -156.5000 295° West 400 460 22,000  Level Honolulu Center
03:13PM 20.5667 -156.6000 298° West 400 460 22,000  Level Honolulu Center
03:14PM 20.6167 -156.7167 295° West 410 472 22,000  Level Honolulu Center
03:15PM 20.6500 -156.8167 290° West 410 472 22,000  Level Honolulu Center
03:16PM 20.7000 -156.9333 295° West 400 460 22,000  Level Honolulu Center
03:17PM 20.7500 -157.0500 295° West 400 460 22,000 -420 Level Honolulu Center
03:18PM 20.7833 -157.1500 290° West 400 460 21,200 -1,680 Descending Honolulu Center
03:19PM 20.8167 -157.2500 290° West 390 449 18,700 -2,460 Descending Honolulu Center
03:20PM 20.8667 -157.3667 295° West 370 426 16,300 -2,460 Descending Honolulu Center
03:21PM 20.8833 -157.4667 280° West 360 414 13,800 -2,520 Descending Honolulu Center
03:22PM 20.9167 -157.5833 287° West 360 414 11,300 -1,920 Descending Honolulu Center
03:23PM 20.9667 -157.6667 303° West 320 368 10,000 -1,500 Descending Honolulu Center
03:24PM 21.0000 -157.7500 293° West 300 345 8,300 -1,800 Descending Honolulu Center
03:25PM 21.0333 -157.8167 298° West 290 334 6,400 -1,800 Descending Honolulu Center
03:26PM 21.0833 -157.9000 303° West 280 322 4,700 -1,800 Descending Honolulu Center
03:27PM 21.1500 -157.9333 335° Northwest 270 311 2,900 -1,320 Descending Honolulu Center
03:28PM 21.2167 -157.9500 347° North 220 253 2,100 -720 Descending Honolulu Center
03:29PM 21.2667 -157.9667 343° North 190 219 1,500 -720 Descending Honolulu Center
03:30PM 21.3167 -157.9667 360° North 130 150 700 -840 Descending Honolulu Center